Flight Track Log - Related Links

Times and Time Zones

All times are in EDT time to prevent confusion due to time zone crossing. See the SKW4542 flight status page for this flight to view local times or setup timezone preferences in your user account.

Time Position Orientation Groundspeed Altitude Reporting Facility
EDT Latitude Longitude Course Direction KTS MPH feet Rate Location/Type
Tue 08:36:31 PM 43.4414 -112.1381 212° Southwest 199 229 7,700  Level Salt Lake Center
Tue 08:37:33 PM 43.3814 -112.1939 214° Southwest 248 285 11,100 3,366 Climbing Salt Lake Center
Tue 08:38:00 PM 43.2233 -112.0604 213° Southwest  Level Estimated
Tue 08:38:34 PM 43.3081 -112.2558 212° Southwest 271 312 14,600  Level Salt Lake Center
Tue 08:39:00 PM 43.1348 -112.0573 213° Southwest  Level Estimated
Tue 08:39:36 PM 43.2439 -112.3147 214° Southwest 282 325 17,100  Level Salt Lake Center
Tue 08:40:00 PM 43.1238 -112.1776 263° West  Level FlightAware Approximate
Tue 08:40:37 PM 43.1633 -112.3872 213° Southwest 300 345 19,600  Level Salt Lake Center
Tue 08:41:39 PM 43.0889 -112.4525 213° Southwest 319 367 22,000 1,659 Climbing Salt Lake Center
Tue 08:42:40 PM 43.0133 -112.5178 212° Southwest 331 381 23,000 488 Climbing Salt Lake Center
Tue 08:43:42 PM 42.9222 -112.6011 214° Southwest 347 399 23,000  Level Salt Lake Center
Tue 08:44:43 PM 42.8386 -112.6411 199° South 351 404 23,000  Level Salt Lake Center
Tue 08:45:45 PM 42.7275 -112.6086 168° South 362 417 23,000  Level Salt Lake Center
Tue 08:46:46 PM 42.6394 -112.5811 167° South 369 425 23,000  Level Salt Lake Center
Tue 08:47:48 PM 42.5189 -112.5447 167° South 370 426 23,000  Level Salt Lake Center
Tue 08:48:49 PM 42.4197 -112.5153 168° South 368 423 23,000  Level Salt Lake Center
Tue 08:49:50 PM 42.3178 -112.4842 167° South 374 430 23,000  Level Salt Lake Center
Tue 08:50:52 PM 42.2158 -112.4542 168° South 377 434 23,000  Level Salt Lake Center
Tue 08:51:53 PM 42.1186 -112.4558 181° South 354 407 23,000  Level Salt Lake Center
Tue 08:52:55 PM 42.0261 -112.4594 182° South 338 389 23,000  Level Salt Lake Center
Tue 08:53:56 PM 41.9319 -112.4633 182° South 339 390 23,000  Level Salt Lake Center
Tue 08:54:58 PM 41.8378 -112.4708 183° South 340 391 23,000 -632 Level Salt Lake Center
Tue 08:56:09 PM 41.7164 -112.4697 180° South 339 390 21,600 -1,663 Descending Salt Lake Center
Tue 08:56:39 PM 41.6658 -112.4753 185° South 339 390 20,200 -2,588 Descending Salt Lake Center
Tue 08:57:00 PM 41.6314 -112.4831 190° South 334 384 19,400 -2,509 Descending Salt Lake Center
Tue 08:57:34 PM 41.5811 -112.4808 178° South 331 381 17,900 -2,323 Descending Salt Lake Center
Tue 08:58:02 PM 41.5400 -112.4869 186° South 331 381 17,000 -1,967 Descending Salt Lake Center
Tue 08:58:35 PM 41.4900 -112.4428 147° Southeast 373 429 15,900 -1,770 Descending Salt Lake Center
Tue 08:59:03 PM 41.4503 -112.4178 155° Southeast 373 429 15,200 -1,770 Descending Salt Lake Center
Tue 08:59:36 PM 41.4003 -112.3786 150° Southeast 364 419 14,100 -1,672 Descending Salt Lake Center
Tue 09:00:04 PM 41.3628 -112.3586 158° South 354 407 13,500 -1,636 Descending Salt Lake Center
Tue 09:00:31 PM 41.3214 -112.3253 149° Southeast 347 399 12,600 -1,548 Descending Salt Lake Center
Tue 09:01:06 PM 41.2775 -112.2989 156° South 349 402 11,900 -1,475 Descending Salt Lake Center
Tue 09:01:32 PM 41.2347 -112.2661 150° Southeast 352 405 11,100 -885 Descending Salt Lake Center
Tue 09:02:07 PM 41.1925 -112.2372 153° Southeast 351 404 11,000 -91 Descending Salt Lake Center
Tue 09:02:38 PM 41.1439 -112.1972 148° Southeast 346 398 11,000  Level Salt Lake Center
Tue 09:03:08 PM 41.1100 -112.1725 151° Southeast 348 400 11,000  Level Salt Lake Center
Tue 09:03:33 PM 41.0628 -112.1450 156° South 348 400 11,000  Level Salt Lake Center
Tue 09:04:10 PM 41.0017 -112.1308 170° South 344 396 11,000  Level Salt Lake Center
Tue 09:04:34 PM 40.9661 -112.1239 172° South 343 395 11,000  Level Salt Lake Center
Tue 09:05:11 PM 40.9089 -112.1114 171° South 342 394 11,000  Level Salt Lake Center
Tue 09:05:41 PM 40.8614 -112.1053 174° South 342 394 11,000  Level Salt Lake Center
Tue 09:06:12 PM 40.8153 -112.0992 174° South 341 392 11,000  Level Salt Lake Center
Tue 09:06:42 PM 40.7694 -112.0967 178° South 291 335 11,000 -290 Level Salt Lake Center
Tue 09:07:14 PM 40.7369 -112.0892 170° South 277 319 10,700 -1,082 Descending Salt Lake Center
Tue 09:07:43 PM 40.6944 -112.0881 179° South 259 298 9,900 -1,279 Descending Salt Lake Center
Tue 09:08:15 PM 40.6656 -112.0819 171° South 259 298 9,400 -885 Descending Salt Lake Center
Tue 09:08:44 PM 40.6242 -112.0808 179° South 251 289 9,000 -393 Descending Salt Lake Center
Tue 09:09:16 PM 40.5994 -112.0742 168° South 242 278 9,000  Level Salt Lake Center
Tue 09:09:38 PM 40.5689 -112.0739 180° South 223 257 9,000  Level Salt Lake Center
Tue 09:10:18 PM 40.5386 -112.0661 169° South 224 258 9,000  Level Salt Lake Center
Tue 09:10:39 PM 40.5214 -112.0394 130° Southeast 207 238 9,000 -295 Level Salt Lake Center
Tue 09:11:19 PM 40.5214 -111.9886 90° East 193 222 8,700 -590 Descending Salt Lake Center
Tue 09:11:40 PM 40.5331 -111.9789 32° Northeast 195 224 8,400 -787 Descending Salt Lake Center
Tue 09:12:20 PM 40.5661 -111.9686 13° North 179 206 7,900 -537 Descending Salt Lake Center
Tue 09:12:47 PM 40.5842 -111.9758 343° North 166 191 7,800 -290 Descending Salt Lake Center
Tue 09:13:22 PM 40.6114 -111.9772 358° North 166 191 7,600 -689 Descending Salt Lake Center
Tue 09:13:48 PM 40.6353 -111.9839 348° North 172 198 7,100 -1,154 Descending Salt Lake Center

Login

Don't have an account? Register now (free) for customized features, flight alerts, and more!